Time;durP1;ratioP1;P1;durP2;ratioP2;P2;SDS_P1;SDS_P2;PMS_P1;PMS_P2;Temp;Humidity;BMP_temperature;BMP_pressure;BME280_temperature;BME280_humidity;BME280_pressure;Samples;Min_cycle;Max_cycle;Signal;HPM_P1;HPM_P2
2024/04/22 00:01:35;;;;;;;0.80;0.80;;;;;;;;;;5321993;26;20011;-61
2024/04/22 00:04:01;;;;;;;0.50;0.50;;;;;;;;;;5346368;26;20001;-60
2024/04/22 00:06:27;;;;;;;0.70;0.70;;;;;;;;;;5346138;26;20037;-61
2024/04/22 00:08:53;;;;;;;1.05;0.73;;;;;;;;;;5323620;26;20012;-61
2024/04/22 00:11:20;;;;;;;0.90;0.63;;;;;;;;;;5328864;26;19997;-61
2024/04/22 00:13:47;;;;;;;1.30;0.60;;;;;;;;;;5345896;26;19993;-61
2024/04/22 00:16:13;;;;;;;0.75;0.75;;;;;;;;;;5363539;26;20528;-61
2024/04/22 00:18:39;;;;;;;0.70;0.60;;;;;;;;;;5345943;26;20015;-61
2024/04/22 00:21:05;;;;;;;2.25;0.70;;;;;;;;;;5314975;26;20012;-61
2024/04/22 00:23:31;;;;;;;1.70;0.55;;;;;;;;;;5332069;26;20004;-61
2024/04/22 00:25:58;;;;;;;3.40;1.65;;;;;;;;;;5373281;26;20000;-61
2024/04/22 00:28:24;;;;;;;0.47;0.47;;;;;;;;;;5379603;26;20014;-61
2024/04/22 00:30:50;;;;;;;0.83;0.60;;;;;;;;;;5344597;26;20019;-61
2024/04/22 00:33:16;;;;;;;0.50;0.50;;;;;;;;;;5380417;26;19996;-61
2024/04/22 00:35:43;;;;;;;2.08;0.63;;;;;;;;;;5359896;26;20020;-61
2024/04/22 00:38:09;;;;;;;0.57;0.43;;;;;;;;;;5349949;26;20009;-61
2024/04/22 00:40:35;;;;;;;0.55;0.55;;;;;;;;;;5361118;26;20481;-61
2024/04/22 00:43:04;;;;;;;1.30;0.93;;;;;;;;;;5346663;26;20491;-61
2024/04/22 00:45:33;;;;;;;2.78;0.70;;;;;;;;;;5340583;26;20338;-61
2024/04/22 00:48:00;;;;;;;0.55;0.50;;;;;;;;;;5345273;26;19992;-61
2024/04/22 00:50:26;;;;;;;0.60;0.60;;;;;;;;;;5376198;26;20000;-61
2024/04/22 00:52:52;;;;;;;3.20;0.90;;;;;;;;;;5380533;26;20087;-61
2024/04/22 00:55:18;;;;;;;0.90;0.90;;;;;;;;;;5313619;26;20012;-61
2024/04/22 00:57:45;;;;;;;0.80;0.60;;;;;;;;;;5346145;26;20522;-61
2024/04/22 01:00:12;;;;;;;0.98;0.68;;;;;;;;;;5352149;26;20571;-61
2024/04/22 01:02:38;;;;;;;1.33;1.20;;;;;;;;;;5345054;26;20496;-61
2024/04/22 01:05:05;;;;;;;1.45;1.20;;;;;;;;;;5344622;26;20048;-61
2024/04/22 01:07:31;;;;;;;0.77;0.73;;;;;;;;;;5375359;26;20008;-61
2024/04/22 01:09:59;;;;;;;1.03;0.60;;;;;;;;;;5336982;26;20045;-61
2024/04/22 01:12:25;;;;;;;2.25;0.93;;;;;;;;;;5336858;26;20019;-61
2024/04/22 01:14:52;;;;;;;1.73;0.75;;;;;;;;;;5380000;26;20004;-60
2024/04/22 01:17:18;;;;;;;1.00;0.70;;;;;;;;;;5315367;26;20016;-61
2024/04/22 01:19:44;;;;;;;1.33;0.45;;;;;;;;;;5314442;26;20337;-61
2024/04/22 01:22:12;;;;;;;0.70;0.63;;;;;;;;;;5346732;26;20040;-61
2024/04/22 01:24:38;;;;;;;0.80;0.75;;;;;;;;;;5377194;26;20000;-61
2024/04/22 01:27:06;;;;;;;1.63;0.80;;;;;;;;;;5377032;26;19996;-61
2024/04/22 01:29:32;;;;;;;2.65;1.00;;;;;;;;;;5379143;26;20010;-61
2024/04/22 01:31:58;;;;;;;1.50;1.10;;;;;;;;;;5352142;26;20015;-61
2024/04/22 01:34:24;;;;;;;1.63;1.17;;;;;;;;;;5314314;26;20079;-60
2024/04/22 01:36:50;;;;;;;1.35;0.80;;;;;;;;;;5361711;26;20020;-61
2024/04/22 01:39:17;;;;;;;4.82;1.13;;;;;;;;;;5378848;26;20000;-61
2024/04/22 01:41:43;;;;;;;0.82;0.60;;;;;;;;;;5326275;26;20020;-61
2024/04/22 01:44:09;;;;;;;1.98;0.90;;;;;;;;;;5379766;26;20000;-61
2024/04/22 01:46:35;;;;;;;1.20;0.93;;;;;;;;;;5365120;26;20005;-61
2024/04/22 01:49:02;;;;;;;1.30;1.10;;;;;;;;;;5370638;26;20008;-61
2024/04/22 01:51:28;;;;;;;1.70;0.90;;;;;;;;;;5360269;26;20012;-61
2024/04/22 01:53:54;;;;;;;1.75;1.10;;;;;;;;;;5335573;26;19996;-61
2024/04/22 01:56:20;;;;;;;2.22;1.08;;;;;;;;;;5294053;26;20004;-61
2024/04/22 01:58:49;;;;;;;1.60;1.20;;;;;;;;;;5344214;26;20457;-61
2024/04/22 02:01:15;;;;;;;2.45;1.27;;;;;;;;;;5368005;26;20190;-61
2024/04/22 02:03:41;;;;;;;2.45;1.10;;;;;;;;;;5376956;26;20000;-61
2024/04/22 02:06:07;;;;;;;1.30;1.20;;;;;;;;;;5318431;26;20457;-61
2024/04/22 02:08:33;;;;;;;1.67;1.00;;;;;;;;;;5370843;26;20083;-61
2024/04/22 02:11:00;;;;;;;2.35;1.00;;;;;;;;;;5364950;26;20423;-61
2024/04/22 02:13:26;;;;;;;4.35;1.00;;;;;;;;;;5378962;26;19996;-61
2024/04/22 02:15:52;;;;;;;1.03;0.93;;;;;;;;;;5315220;26;20367;-61
2024/04/22 02:18:19;;;;;;;2.15;0.93;;;;;;;;;;5345250;26;20263;-61
2024/04/22 02:20:45;;;;;;;1.00;0.90;;;;;;;;;;5347096;26;19993;-61
2024/04/22 02:23:11;;;;;;;2.05;1.30;;;;;;;;;;5347172;26;20017;-61
2024/04/22 02:25:39;;;;;;;2.03;1.15;;;;;;;;;;5372050;26;20341;-61
2024/04/22 02:28:05;;;;;;;1.00;0.90;;;;;;;;;;5348363;26;20340;-61
2024/04/22 02:30:32;;;;;;;1.63;1.00;;;;;;;;;;5355060;26;20011;-60
2024/04/22 02:32:58;;;;;;;1.00;0.90;;;;;;;;;;5381617;26;20353;-60
2024/04/22 02:35:24;;;;;;;2.28;1.13;;;;;;;;;;5351115;26;20007;-61
2024/04/22 02:37:50;;;;;;;6.13;1.02;;;;;;;;;;5360448;26;20012;-61
2024/04/22 02:40:17;;;;;;;1.30;0.97;;;;;;;;;;5352158;26;20007;-61
2024/04/22 02:42:43;;;;;;;1.20;1.10;;;;;;;;;;5368650;26;20366;-61
2024/04/22 02:45:09;;;;;;;3.35;1.30;;;;;;;;;;5346525;26;20043;-61
2024/04/22 02:47:35;;;;;;;1.30;1.13;;;;;;;;;;5328385;26;20035;-61
2024/04/22 02:50:02;;;;;;;1.92;1.50;;;;;;;;;;5379001;26;20445;-61
2024/04/22 02:52:28;;;;;;;2.20;1.70;;;;;;;;;;5304382;26;19997;-61
2024/04/22 02:54:54;;;;;;;2.08;1.73;;;;;;;;;;5376174;26;20287;-61
2024/04/22 02:57:20;;;;;;;1.63;1.52;;;;;;;;;;5382483;26;20069;-61
2024/04/22 02:59:46;;;;;;;8.23;2.28;;;;;;;;;;5319779;26;20012;-61
2024/04/22 03:02:12;;;;;;;2.22;1.60;;;;;;;;;;5337444;26;20000;-61
2024/04/22 03:04:39;;;;;;;2.10;1.80;;;;;;;;;;5365477;26;20011;-61
2024/04/22 03:07:07;;;;;;;3.15;2.17;;;;;;;;;;5381532;26;20007;-61
2024/04/22 03:09:39;;;;;;;2.22;1.80;;;;;;;;;;5350210;26;19992;-61
2024/04/22 03:12:05;;;;;;;2.30;2.10;;;;;;;;;;5377605;26;19992;-61
2024/04/22 03:14:31;;;;;;;2.53;2.10;;;;;;;;;;5346891;26;19989;-61
2024/04/22 03:16:58;;;;;;;2.70;2.50;;;;;;;;;;5368977;26;20469;-61
2024/04/22 03:19:24;;;;;;;2.40;2.03;;;;;;;;;;5351550;26;20034;-61
2024/04/22 03:21:50;;;;;;;4.45;2.22;;;;;;;;;;5353374;26;20007;-61
2024/04/22 03:24:16;;;;;;;2.67;2.10;;;;;;;;;;5350881;26;20020;-61
2024/04/22 03:26:43;;;;;;;5.32;2.75;;;;;;;;;;5381498;26;19992;-61
2024/04/22 03:29:09;;;;;;;2.28;1.77;;;;;;;;;;5380748;26;19996;-61
2024/04/22 03:31:35;;;;;;;2.50;2.30;;;;;;;;;;5359860;26;19993;-61
2024/04/22 03:34:01;;;;;;;2.67;2.00;;;;;;;;;;5346254;26;20001;-61
2024/04/22 03:36:27;;;;;;;3.75;2.08;;;;;;;;;;5354313;26;20000;-61
2024/04/22 03:38:54;;;;;;;1.90;1.70;;;;;;;;;;5380280;26;20004;-61
2024/04/22 03:41:20;;;;;;;2.27;2.07;;;;;;;;;;5350945;26;20000;-61
2024/04/22 03:43:46;;;;;;;4.57;2.35;;;;;;;;;;5378352;26;20387;-61
2024/04/22 03:51:44;;;;;;;2.05;1.27;;;;;;;;;;5354421;26;20458;-59
2024/04/22 03:54:10;;;;;;;2.55;1.38;;;;;;;;;;5380887;26;20479;-58
2024/04/22 03:56:36;;;;;;;4.43;3.35;;;;;;;;;;5344596;26;20024;-58
2024/04/22 03:59:02;;;;;;;1.88;1.20;;;;;;;;;;5347978;26;20032;-61
2024/04/22 04:01:29;;;;;;;1.55;1.45;;;;;;;;;;5345614;26;20005;-61
2024/04/22 04:03:56;;;;;;;3.10;1.25;;;;;;;;;;5344617;26;20001;-61
2024/04/22 04:06:23;;;;;;;1.67;1.20;;;;;;;;;;5314839;26;20427;-61
2024/04/22 04:08:49;;;;;;;3.22;1.10;;;;;;;;;;5314829;26;19997;-60
2024/04/22 04:11:16;;;;;;;2.05;1.52;;;;;;;;;;5345778;26;20045;-60
2024/04/22 04:13:46;;;;;;;1.13;0.98;;;;;;;;;;5346169;26;20025;-60
2024/04/22 04:16:12;;;;;;;1.27;1.00;;;;;;;;;;5346219;26;20111;-60
2024/04/22 04:18:39;;;;;;;2.28;1.40;;;;;;;;;;5315276;26;20015;-61
2024/04/22 04:21:05;;;;;;;1.75;1.15;;;;;;;;;;5345297;26;20454;-60
2024/04/22 04:23:32;;;;;;;1.00;1.00;;;;;;;;;;5345932;26;20005;-61
2024/04/22 04:25:59;;;;;;;1.17;1.08;;;;;;;;;;5345682;26;20004;-60
2024/04/22 04:28:25;;;;;;;2.75;1.10;;;;;;;;;;5345762;26;20024;-60
2024/04/22 04:30:55;;;;;;;1.38;0.98;;;;;;;;;;5345142;26;20075;-61
2024/04/22 04:33:21;;;;;;;1.88;1.27;;;;;;;;;;5345637;26;20001;-60
2024/04/22 04:36:01;;;;;;;6.50;1.70;;;;;;;;;;5345309;26;20453;-60
2024/04/22 04:38:28;;;;;;;3.15;2.10;;;;;;;;;;5345524;26;19993;-61
2024/04/22 04:40:54;;;;;;;1.75;1.65;;;;;;;;;;5344406;26;20005;-61
2024/04/22 04:43:20;;;;;;;2.55;1.70;;;;;;;;;;5345392;26;20012;-61
2024/04/22 04:45:47;;;;;;;2.20;1.67;;;;;;;;;;5345596;26;20070;-60
2024/04/22 04:48:13;;;;;;;2.30;1.83;;;;;;;;;;5345447;26;19997;-60
2024/04/22 04:50:40;;;;;;;4.60;2.65;;;;;;;;;;5314548;26;20325;-60
2024/04/22 04:53:06;;;;;;;7.90;3.67;;;;;;;;;;5345553;26;20003;-61
2024/04/22 04:55:32;;;;;;;5.57;3.40;;;;;;;;;;5383282;21;20000;-60
2024/04/22 04:57:59;;;;;;;5.00;3.90;;;;;;;;;;5413823;26;20451;-59
2024/04/22 05:00:25;;;;;;;2.08;1.80;;;;;;;;;;5415173;26;19995;-60
2024/04/22 05:02:52;;;;;;;2.65;2.10;;;;;;;;;;5415518;26;20042;-60
2024/04/22 05:05:18;;;;;;;2.60;2.40;;;;;;;;;;5415368;26;19992;-60
2024/04/22 05:07:46;;;;;;;3.03;2.67;;;;;;;;;;5415664;26;20003;-60
2024/04/22 05:10:13;;;;;;;1.98;1.75;;;;;;;;;;5415276;26;20213;-60
2024/04/22 05:12:39;;;;;;;2.73;1.80;;;;;;;;;;5413997;26;20002;-60
2024/04/22 05:15:05;;;;;;;2.80;1.80;;;;;;;;;;5415564;26;19999;-59
2024/04/22 05:17:31;;;;;;;4.13;2.20;;;;;;;;;;5415522;26;20265;-59
2024/04/22 05:19:58;;;;;;;2.83;1.67;;;;;;;;;;5414914;26;20125;-60
2024/04/22 05:22:24;;;;;;;2.47;2.28;;;;;;;;;;5415534;26;20080;-60
2024/04/22 05:24:50;;;;;;;3.05;2.20;;;;;;;;;;5415421;26;19998;-59
2024/04/22 05:27:16;;;;;;;5.07;2.55;;;;;;;;;;5415090;26;19992;-62
2024/04/22 05:29:42;;;;;;;3.05;1.95;;;;;;;;;;5414778;26;19991;-62
2024/04/22 05:32:08;;;;;;;2.88;1.73;;;;;;;;;;5415368;26;20368;-62
2024/04/22 05:37:19;;;;;;;2.78;1.80;;;;;;;;;;5414145;26;20060;-60
2024/04/22 05:39:46;;;;;;;2.00;1.70;;;;;;;;;;5414991;26;19995;-59
2024/04/22 05:42:12;;;;;;;3.53;1.98;;;;;;;;;;5414835;26;19999;-60
2024/04/22 05:44:38;;;;;;;2.50;1.83;;;;;;;;;;5414919;26;20028;-60
2024/04/22 05:47:04;;;;;;;2.83;1.60;;;;;;;;;;5415274;26;20003;-59
2024/04/22 05:49:30;;;;;;;2.50;1.30;;;;;;;;;;5383461;26;20006;-60
2024/04/22 05:51:56;;;;;;;2.35;1.70;;;;;;;;;;5413214;26;20000;-59
2024/04/22 05:54:23;;;;;;;1.63;1.50;;;;;;;;;;5387032;26;19996;-62
2024/04/22 05:56:49;;;;;;;1.60;1.40;;;;;;;;;;5418198;26;20007;-55
2024/04/22 05:59:17;;;;;;;2.08;1.63;;;;;;;;;;5417997;26;20007;-55
2024/04/22 06:01:43;;;;;;;1.60;1.50;;;;;;;;;;5416359;26;20020;-56
2024/04/22 06:04:10;;;;;;;1.20;1.10;;;;;;;;;;5418342;26;20718;-55
2024/04/22 06:06:36;;;;;;;1.70;1.58;;;;;;;;;;5416461;26;19992;-58
2024/04/22 06:09:09;;;;;;;4.55;3.67;;;;;;;;;;5418542;26;20068;-59
2024/04/22 06:11:36;;;;;;;3.28;2.40;;;;;;;;;;5418085;26;19996;-59
2024/04/22 06:14:02;;;;;;;5.68;5.28;;;;;;;;;;5415661;26;20000;-59
2024/04/22 06:16:28;;;;;;;7.90;6.50;;;;;;;;;;5416412;26;20002;-59
2024/04/22 06:18:55;;;;;;;3.75;2.78;;;;;;;;;;5417613;26;19996;-58
2024/04/22 06:21:22;;;;;;;2.53;2.20;;;;;;;;;;5418142;26;19999;-59
2024/04/22 06:23:49;;;;;;;2.42;2.22;;;;;;;;;;5417717;26;19995;-59
2024/04/22 06:26:15;;;;;;;2.92;2.63;;;;;;;;;;5415950;26;20336;-58
2024/04/22 06:28:42;;;;;;;2.97;2.45;;;;;;;;;;5417227;26;20392;-60
2024/04/22 06:31:08;;;;;;;2.92;2.63;;;;;;;;;;5415672;26;19996;-59
2024/04/22 06:33:36;;;;;;;1.77;1.67;;;;;;;;;;5417157;26;20007;-59
2024/04/22 06:36:03;;;;;;;2.50;2.20;;;;;;;;;;5415800;26;19991;-58
2024/04/22 06:38:30;;;;;;;1.35;1.25;;;;;;;;;;5417137;26;19996;-62
2024/04/22 06:40:56;;;;;;;;;;;;;;;;;;5410704;26;19996;-58
2024/04/22 06:43:22;;;;;;;2.58;1.67;;;;;;;;;;5415447;26;19979;-59
2024/04/22 06:45:49;;;;;;;3.35;2.30;;;;;;;;;;5417387;26;19997;-59
2024/04/22 06:48:15;;;;;;;12.13;6.72;;;;;;;;;;5417193;26;20525;-61
2024/04/22 06:50:45;;;;;;;2.57;1.63;;;;;;;;;;5417224;26;20024;-62
2024/04/22 06:53:11;;;;;;;3.47;1.92;;;;;;;;;;5414974;26;20353;-60
2024/04/22 06:55:37;;;;;;;3.43;2.10;;;;;;;;;;5417266;26;20010;-60
2024/04/22 06:58:03;;;;;;;2.03;1.83;;;;;;;;;;5415327;26;20023;-59
2024/04/22 07:00:30;;;;;;;2.17;1.98;;;;;;;;;;5417353;26;20032;-61
2024/04/22 07:02:56;;;;;;;2.67;2.20;;;;;;;;;;5416897;26;20006;-58
2024/04/22 07:05:23;;;;;;;4.97;2.88;;;;;;;;;;5416415;26;20006;-60
2024/04/22 07:07:49;;;;;;;4.68;3.83;;;;;;;;;;5415807;26;19991;-59
2024/04/22 07:10:15;;;;;;;3.75;3.17;;;;;;;;;;5416404;26;20000;-59
2024/04/22 07:12:42;;;;;;;2.40;2.17;;;;;;;;;;5417468;26;20007;-60
2024/04/22 07:15:08;;;;;;;3.00;2.30;;;;;;;;;;5415826;26;20463;-60
2024/04/22 07:17:34;;;;;;;2.93;2.10;;;;;;;;;;5417243;26;20462;-53
2024/04/22 07:20:00;;;;;;;3.92;2.80;;;;;;;;;;5416441;26;20102;-53
2024/04/22 07:22:29;;;;;;;3.72;2.30;;;;;;;;;;5417426;26;20317;-55
2024/04/22 07:24:56;;;;;;;2.15;1.92;;;;;;;;;;5414889;26;20007;-60
2024/04/22 07:27:22;;;;;;;3.78;2.38;;;;;;;;;;5417206;26;20069;-59
2024/04/22 07:29:49;;;;;;;4.00;2.13;;;;;;;;;;5416302;26;19996;-60
2024/04/22 07:32:15;;;;;;;3.80;2.43;;;;;;;;;;5416730;26;20005;-60
2024/04/22 07:34:42;;;;;;;6.17;3.07;;;;;;;;;;5416546;26;20003;-60
2024/04/22 07:37:19;;;;;;;4.07;3.63;;;;;;;;;;5416834;26;19998;-59
2024/04/22 07:39:46;;;;;;;5.03;2.97;;;;;;;;;;5416245;26;20066;-60
2024/04/22 07:42:12;;;;;;;6.28;3.42;;;;;;;;;;5416970;26;20001;-52
2024/04/22 07:44:38;;;;;;;4.57;2.97;;;;;;;;;;5416411;26;20006;-50
2024/04/22 07:47:05;;;;;;;4.53;2.60;;;;;;;;;;5415052;26;20017;-59
2024/04/22 07:49:31;;;;;;;3.33;2.63;;;;;;;;;;5416226;26;20048;-59
2024/04/22 07:51:58;;;;;;;4.63;3.60;;;;;;;;;;5416573;26;19995;-59
2024/04/22 07:54:24;;;;;;;3.58;2.63;;;;;;;;;;5416619;26;20001;-59
2024/04/22 07:56:50;;;;;;;3.80;2.50;;;;;;;;;;5416461;26;20011;-59
2024/04/22 07:59:18;;;;;;;4.50;3.05;;;;;;;;;;5416388;26;20019;-58
2024/04/22 08:01:46;;;;;;;4.43;2.25;;;;;;;;;;5416157;26;19999;-59
2024/04/22 08:04:12;;;;;;;4.85;2.60;;;;;;;;;;5414927;26;20018;-58
2024/04/22 08:06:39;;;;;;;4.23;3.10;;;;;;;;;;5416621;26;20010;-58
2024/04/22 08:09:06;;;;;;;3.90;2.80;;;;;;;;;;5416317;26;20448;-59
2024/04/22 08:11:32;;;;;;;3.75;2.72;;;;;;;;;;5416331;26;20607;-59
2024/04/22 08:13:58;;;;;;;5.23;3.30;;;;;;;;;;5416321;26;20011;-59
2024/04/22 08:16:24;;;;;;;2.83;2.25;;;;;;;;;;5413611;26;20241;-57
2024/04/22 08:18:50;;;;;;;4.22;3.45;;;;;;;;;;5416169;26;20003;-58
2024/04/22 08:21:17;;;;;;;3.97;3.15;;;;;;;;;;5416049;26;19995;-59
2024/04/22 08:23:43;;;;;;;4.97;3.42;;;;;;;;;;5416386;26;20000;-59
2024/04/22 08:26:09;;;;;;;6.60;2.85;;;;;;;;;;5414626;26;20452;-59
2024/04/22 08:28:35;;;;;;;4.47;3.20;;;;;;;;;;5416479;26;20352;-59
2024/04/22 08:31:02;;;;;;;6.70;3.35;;;;;;;;;;5415630;26;20093;-59
2024/04/22 08:33:28;;;;;;;5.28;3.28;;;;;;;;;;5414530;26;20102;-59
2024/04/22 08:35:56;;;;;;;4.47;3.50;;;;;;;;;;5415976;26;19995;-59
2024/04/22 08:38:23;;;;;;;6.47;3.63;;;;;;;;;;5414535;26;20407;-59
2024/04/22 08:40:49;;;;;;;8.07;5.03;;;;;;;;;;5415979;26;20479;-59
2024/04/22 08:43:18;;;;;;;7.57;5.13;;;;;;;;;;5415903;26;20003;-59
2024/04/22 08:45:45;;;;;;;7.63;5.32;;;;;;;;;;5415948;26;20008;-59
2024/04/22 08:48:12;;;;;;;6.35;4.03;;;;;;;;;;5415857;26;20003;-58
2024/04/22 08:50:39;;;;;;;5.82;3.63;;;;;;;;;;5415544;26;20072;-59
2024/04/22 08:53:08;;;;;;;6.35;3.92;;;;;;;;;;5413669;26;20006;-59
2024/04/22 08:55:35;;;;;;;5.65;3.55;;;;;;;;;;5414083;26;19995;-59
2024/04/22 08:58:02;;;;;;;6.47;4.18;;;;;;;;;;5414910;26;20344;-59
2024/04/22 09:00:29;;;;;;;5.05;3.38;;;;;;;;;;5414579;26;20000;-59
2024/04/22 09:02:55;;;;;;;6.25;3.85;;;;;;;;;;5415541;26;20004;-59
2024/04/22 09:05:21;;;;;;;5.75;3.90;;;;;;;;;;5415446;26;20087;-58
2024/04/22 09:07:54;;;;;;;6.33;4.10;;;;;;;;;;5415629;26;20166;-59
2024/04/22 09:10:22;;;;;;;5.85;4.20;;;;;;;;;;5415610;26;19999;-59
2024/04/22 09:13:01;;;;;;;5.70;3.50;;;;;;;;;;5415600;26;19996;-59
2024/04/22 09:15:28;;;;;;;5.80;4.32;;;;;;;;;;5415502;26;19992;-59
2024/04/22 09:17:55;;;;;;;7.90;5.38;;;;;;;;;;5415381;26;19992;-59
2024/04/22 09:20:21;;;;;;;7.50;4.68;;;;;;;;;;5415234;26;20329;-59
2024/04/22 09:22:48;;;;;;;9.90;5.90;;;;;;;;;;5415119;26;20028;-59
2024/04/22 09:25:14;;;;;;;11.45;5.63;;;;;;;;;;5415163;26;20072;-58
2024/04/22 09:27:50;;;;;;;8.85;5.20;;;;;;;;;;5420581;26;20014;-58
2024/04/22 09:30:17;;;;;;;12.98;6.72;;;;;;;;;;5421086;26;20464;-59
2024/04/22 09:32:44;;;;;;;4.97;3.40;;;;;;;;;;5422769;26;20468;-59
2024/04/22 09:35:15;;;;;;;7.85;3.95;;;;;;;;;;5422816;26;20006;-59
2024/04/22 09:37:45;;;;;;;5.32;3.65;;;;;;;;;;5422598;26;19996;-59
2024/04/22 09:40:11;;;;;;;5.45;3.72;;;;;;;;;;5422994;26;20037;-59
2024/04/22 09:42:38;;;;;;;4.50;3.10;;;;;;;;;;5421167;26;20421;-59
2024/04/22 09:45:05;;;;;;;;;;;;;;;;;;5421562;26;20068;-58
2024/04/22 09:47:31;;;;;;;3.88;3.15;;;;;;;;;;5422536;26;20381;-59
2024/04/22 09:49:59;;;;;;;5.95;3.65;;;;;;;;;;5422481;26;20000;-59
2024/04/22 09:52:25;;;;;;;;;;;;;;;;;;5421511;26;20027;-59
2024/04/22 09:54:51;;;;;;;9.60;4.07;;;;;;;;;;5420826;26;19925;-59
2024/04/22 09:57:18;;;;;;;6.40;4.07;;;;;;;;;;5422263;26;20001;-59
2024/04/22 09:59:44;;;;;;;6.03;3.78;;;;;;;;;;5420280;26;19991;-59
2024/04/22 10:02:11;;;;;;;5.70;3.92;;;;;;;;;;5422373;26;20003;-59
2024/04/22 10:04:37;;;;;;;5.00;3.75;;;;;;;;;;5420655;26;19995;-57
2024/04/22 10:07:03;;;;;;;6.87;4.63;;;;;;;;;;5422081;26;20007;-59
2024/04/22 10:09:30;;;;;;;6.03;3.93;;;;;;;;;;5390798;26;19995;-59
2024/04/22 10:12:04;;;;;;;6.50;3.85;;;;;;;;;;5422293;26;20308;-59
2024/04/22 10:14:31;;;;;;;5.75;3.97;;;;;;;;;;5422081;26;20525;-57
2024/04/22 10:17:01;;;;;;;5.03;3.63;;;;;;;;;;5420156;26;20340;-59
2024/04/22 10:19:29;;;;;;;5.55;3.70;;;;;;;;;;5421643;26;20007;-60
2024/04/22 10:22:01;;;;;;;4.57;3.78;;;;;;;;;;5421841;26;20341;-60
2024/04/22 10:24:30;;;;;;;6.25;5.25;;;;;;;;;;5406960;26;20006;-60
2024/04/22 10:26:57;;;;;;;6.68;4.30;;;;;;;;;;5401989;26;20039;-59
2024/04/22 10:29:23;;;;;;;5.35;3.55;;;;;;;;;;5404231;26;20049;-63
2024/04/22 10:31:50;;;;;;;8.25;4.47;;;;;;;;;;5393383;26;20347;-59
2024/04/22 10:34:16;;;;;;;6.80;4.40;;;;;;;;;;5395412;26;20470;-59
2024/04/22 10:36:42;;;;;;;4.95;3.80;;;;;;;;;;5393467;26;20416;-60
2024/04/22 10:39:08;;;;;;;5.90;4.13;;;;;;;;;;5405313;26;19999;-59
2024/04/22 10:41:35;;;;;;;4.07;2.73;;;;;;;;;;5411832;26;20022;-58
2024/04/22 10:44:01;;;;;;;8.75;5.38;;;;;;;;;;5414439;26;20398;-59
2024/04/22 10:46:27;;;;;;;14.95;8.77;;;;;;;;;;5411025;26;20014;-60
2024/04/22 10:48:53;;;;;;;7.53;4.38;;;;;;;;;;5411877;26;20073;-58
2024/04/22 10:51:20;;;;;;;8.50;4.75;;;;;;;;;;5406568;26;20073;-59
2024/04/22 10:53:46;;;;;;;5.90;4.80;;;;;;;;;;5397566;26;20010;-57
2024/04/22 10:56:12;;;;;;;9.75;7.10;;;;;;;;;;5414107;26;20000;-58
2024/04/22 10:58:39;;;;;;;5.07;3.65;;;;;;;;;;5416079;21;20011;-61
2024/04/22 11:01:05;;;;;;;4.20;3.25;;;;;;;;;;5409231;26;20027;-62
2024/04/22 11:03:31;;;;;;;6.30;3.55;;;;;;;;;;5399262;26;20011;-62
2024/04/22 11:06:03;;;;;;;5.28;4.60;;;;;;;;;;5415544;26;20476;-60
2024/04/22 11:08:29;;;;;;;6.30;3.75;;;;;;;;;;5412665;26;20417;-61
2024/04/22 11:10:56;;;;;;;6.10;4.10;;;;;;;;;;5386413;26;20011;-61
2024/04/22 11:13:23;;;;;;;4.22;3.42;;;;;;;;;;5404704;26;20717;-61
2024/04/22 11:15:49;;;;;;;5.28;4.28;;;;;;;;;;5415219;26;20529;-62
2024/04/22 11:18:17;;;;;;;5.15;3.97;;;;;;;;;;5373116;26;19995;-61
2024/04/22 11:20:44;;;;;;;8.80;5.20;;;;;;;;;;5389050;26;20008;-61
2024/04/22 11:23:10;;;;;;;8.73;5.60;;;;;;;;;;5396964;26;19999;-64
2024/04/22 11:25:37;;;;;;;8.07;5.55;;;;;;;;;;5396922;26;20735;-63
2024/04/22 11:28:04;;;;;;;12.82;6.85;;;;;;;;;;5409995;26;19996;-63
2024/04/22 11:30:30;;;;;;;6.80;5.75;;;;;;;;;;5402339;26;20002;-62
2024/04/22 11:32:56;;;;;;;8.52;7.53;;;;;;;;;;5410874;26;20403;-63
2024/04/22 11:35:22;;;;;;;9.77;6.65;;;;;;;;;;5414988;26;20006;-63
2024/04/22 11:37:49;;;;;;;8.60;6.50;;;;;;;;;;5414169;26;20538;-63
2024/04/22 11:40:15;;;;;;;9.50;6.20;;;;;;;;;;5399150;26;19996;-63
2024/04/22 11:42:41;;;;;;;7.17;5.70;;;;;;;;;;5359989;26;20394;-64
2024/04/22 11:45:07;;;;;;;6.22;5.25;;;;;;;;;;5414838;26;20004;-64
2024/04/22 11:47:34;;;;;;;9.90;6.33;;;;;;;;;;5414090;26;19999;-63
2024/04/22 11:50:00;;;;;;;10.90;6.22;;;;;;;;;;5363266;26;20011;-62
2024/04/22 11:52:26;;;;;;;9.88;6.35;;;;;;;;;;5413982;26;20007;-64
2024/04/22 11:54:52;;;;;;;6.88;6.03;;;;;;;;;;5414614;26;19995;-64
2024/04/22 11:57:18;;;;;;;8.10;6.28;;;;;;;;;;5413642;26;20035;-61
2024/04/22 11:59:44;;;;;;;7.85;5.60;;;;;;;;;;5368009;26;19996;-64
2024/04/22 12:02:13;;;;;;;8.68;5.65;;;;;;;;;;5413863;26;19995;-64
2024/04/22 12:04:39;;;;;;;6.63;5.72;;;;;;;;;;5414901;26;20002;-64
2024/04/22 12:07:05;;;;;;;7.45;5.03;;;;;;;;;;5382432;26;20439;-63
2024/04/22 12:09:31;;;;;;;7.53;4.90;;;;;;;;;;5358645;26;20032;-63
2024/04/22 12:11:58;;;;;;;6.28;5.30;;;;;;;;;;5349569;26;20042;-64
2024/04/22 12:14:24;;;;;;;6.95;5.43;;;;;;;;;;5413352;26;20032;-63
2024/04/22 12:16:50;;;;;;;9.10;4.97;;;;;;;;;;5415306;26;19991;-64
2024/04/22 12:19:16;;;;;;;5.27;4.50;;;;;;;;;;5414056;26;20023;-64
2024/04/22 12:21:43;;;;;;;7.50;4.65;;;;;;;;;;5401967;26;20238;-64
2024/04/22 12:24:09;;;;;;;9.13;5.80;;;;;;;;;;5411888;26;19999;-64
2024/04/22 12:26:35;;;;;;;8.07;5.20;;;;;;;;;;5414320;26;19996;-64
2024/04/22 12:29:01;;;;;;;7.53;5.03;;;;;;;;;;5361659;26;20321;-64
2024/04/22 12:31:27;;;;;;;6.68;4.97;;;;;;;;;;5414578;26;20004;-64
2024/04/22 12:33:54;;;;;;;8.45;5.38;;;;;;;;;;5413617;26;20508;-63
2024/04/22 12:36:20;;;;;;;9.07;6.05;;;;;;;;;;5414324;26;19996;-62
2024/04/22 12:38:46;;;;;;;7.63;5.82;;;;;;;;;;5413098;26;20008;-63
2024/04/22 12:41:12;;;;;;;7.75;5.88;;;;;;;;;;5384193;26;20477;-62
2024/04/22 12:43:38;;;;;;;8.02;5.35;;;;;;;;;;5403892;26;20015;-63
2024/04/22 12:46:05;;;;;;;7.97;5.43;;;;;;;;;;5398170;26;20000;-60
2024/04/22 12:51:16;;;;;;;7.00;5.25;;;;;;;;;;5410902;26;19999;-61
2024/04/22 12:53:42;;;;;;;6.95;4.90;;;;;;;;;;5379884;26;19992;-63
2024/04/22 12:56:08;;;;;;;7.85;4.70;;;;;;;;;;5388485;26;20383;-61
2024/04/22 12:58:36;;;;;;;8.20;6.10;;;;;;;;;;5402868;26;19999;-58
2024/04/22 13:01:03;;;;;;;25.73;15.25;;;;;;;;;;5375819;26;20035;-62
2024/04/22 13:03:29;;;;;;;7.85;6.25;;;;;;;;;;5412747;26;20000;-53
2024/04/22 13:05:55;;;;;;;7.32;5.15;;;;;;;;;;5385809;26;20019;-55
2024/04/22 13:08:22;;;;;;;6.43;4.10;;;;;;;;;;5363933;26;20014;-66
2024/04/22 13:10:48;;;;;;;5.95;4.15;;;;;;;;;;5338170;26;20083;-65
2024/04/22 13:13:14;;;;;;;5.38;4.60;;;;;;;;;;5396910;26;20403;-63
2024/04/22 13:15:41;;;;;;;10.63;7.20;;;;;;;;;;5353842;26;20347;-63
2024/04/22 13:18:07;;;;;;;9.53;5.93;;;;;;;;;;5320253;26;20011;-62
2024/04/22 13:20:33;;;;;;;8.50;4.90;;;;;;;;;;5344033;26;20019;-62
2024/04/22 13:22:59;;;;;;;5.53;3.92;;;;;;;;;;5376456;26;20000;-61
2024/04/22 13:25:26;;;;;;;5.07;4.30;;;;;;;;;;5398745;26;20006;-64
2024/04/22 13:27:54;;;;;;;6.00;4.68;;;;;;;;;;5324147;26;20006;-63
2024/04/22 13:30:20;;;;;;;5.45;3.90;;;;;;;;;;5325862;26;20007;-63
2024/04/22 13:32:50;;;;;;;5.23;4.17;;;;;;;;;;5380577;26;19996;-62
2024/04/22 13:35:17;;;;;;;9.30;4.93;;;;;;;;;;5351905;26;19996;-61
2024/04/22 13:37:45;;;;;;;6.75;4.43;;;;;;;;;;5388273;26;20000;-61
2024/04/22 13:40:11;;;;;;;5.47;4.05;;;;;;;;;;5363443;26;20028;-62
2024/04/22 13:42:38;;;;;;;5.50;4.30;;;;;;;;;;5371490;26;20023;-63
2024/04/22 13:45:05;;;;;;;5.65;3.63;;;;;;;;;;5350891;26;20003;-63
2024/04/22 13:47:31;;;;;;;5.38;3.65;;;;;;;;;;5397039;26;20032;-63
2024/04/22 13:49:57;;;;;;;6.57;4.35;;;;;;;;;;5357500;26;20509;-61
2024/04/22 13:52:24;;;;;;;3.45;2.85;;;;;;;;;;5386237;26;20048;-61
2024/04/22 13:54:51;;;;;;;5.45;3.92;;;;;;;;;;5385716;26;20007;-62
2024/04/22 13:57:17;;;;;;;10.57;7.00;;;;;;;;;;5398395;26;20018;-59
2024/04/22 13:59:43;;;;;;;5.70;4.20;;;;;;;;;;5402608;26;20000;-57
2024/04/22 14:02:09;;;;;;;6.45;3.92;;;;;;;;;;5400031;26;20004;-57
2024/04/22 14:04:36;;;;;;;6.70;3.70;;;;;;;;;;5388554;26;20415;-55
2024/04/22 14:07:02;;;;;;;4.38;3.20;;;;;;;;;;5392024;26;20015;-58
2024/04/22 14:09:28;;;;;;;7.03;4.13;;;;;;;;;;5392178;26;20367;-58
2024/04/22 14:11:54;;;;;;;6.32;3.63;;;;;;;;;;5396314;26;20385;-60
2024/04/22 14:14:21;;;;;;;5.45;3.55;;;;;;;;;;5399716;26;20006;-58
2024/04/22 14:16:47;;;;;;;;;;;;;;;;;;5379431;26;20012;-58
2024/04/22 14:19:14;;;;;;;4.47;3.30;;;;;;;;;;5380926;26;19926;-58
2024/04/22 14:21:40;;;;;;;3.70;3.33;;;;;;;;;;5381848;26;19993;-56
2024/04/22 14:24:06;;;;;;;5.95;3.22;;;;;;;;;;5380855;26;20000;-51
2024/04/22 14:26:32;;;;;;;9.63;3.97;;;;;;;;;;5382090;26;19995;-59
2024/04/22 14:28:58;;;;;;;4.00;3.20;;;;;;;;;;5396848;26;20343;-60
2024/04/22 14:31:25;;;;;;;3.58;3.08;;;;;;;;;;5414254;26;20014;-55
2024/04/22 14:33:52;;;;;;;5.22;3.67;;;;;;;;;;5415214;26;20060;-59
2024/04/22 14:36:18;;;;;;;5.07;3.47;;;;;;;;;;5389723;26;20081;-59
2024/04/22 14:38:45;;;;;;;5.00;4.22;;;;;;;;;;5390103;26;20001;-61
2024/04/22 14:41:11;;;;;;;4.18;2.40;;;;;;;;;;5396961;26;20343;-61
2024/04/22 14:43:37;;;;;;;6.40;5.70;;;;;;;;;;5392744;26;20011;-61
2024/04/22 14:46:04;;;;;;;3.78;3.38;;;;;;;;;;5354167;26;19996;-58
2024/04/22 14:48:30;;;;;;;4.43;3.53;;;;;;;;;;5380982;26;20008;-55
2024/04/22 14:50:57;;;;;;;3.88;3.20;;;;;;;;;;5392319;26;20323;-61